createdAt,value
2017-05-30T00:00:16.916Z,-57
2017-05-30T00:10:16.981Z,-57
2017-05-30T00:20:16.949Z,-57
2017-05-30T00:30:17.004Z,-55
2017-05-30T00:40:16.988Z,-56
2017-05-30T00:50:17.245Z,-56
2017-05-30T01:00:16.988Z,-56
2017-05-30T01:10:16.950Z,-57
2017-05-30T01:20:17.001Z,-57
2017-05-30T01:30:16.970Z,-56
2017-05-30T01:40:16.926Z,-56
2017-05-30T01:50:17.258Z,-57
2017-05-30T02:00:16.965Z,-57
2017-05-30T02:10:17.020Z,-58
2017-05-30T02:20:17.031Z,-57
2017-05-30T02:30:16.933Z,-56
2017-05-30T02:40:16.981Z,-57
2017-05-30T02:50:16.955Z,-58
2017-05-30T03:00:16.997Z,-59
2017-05-30T03:10:16.985Z,-58
2017-05-30T03:20:16.977Z,-57
2017-05-30T03:30:17.029Z,-57
2017-05-30T03:40:16.991Z,-57
2017-05-30T03:50:17.048Z,-56
2017-05-30T04:00:16.968Z,-56
2017-05-30T04:10:16.945Z,-57
2017-05-30T04:20:17.009Z,-55
2017-05-30T04:30:17.009Z,-56
2017-05-30T04:40:16.945Z,-57
2017-05-30T04:50:17.031Z,-57
2017-05-30T05:00:16.951Z,-57
2017-05-30T05:10:17.032Z,-57
2017-05-30T05:20:16.987Z,-57
2017-05-30T05:30:17.041Z,-55
2017-05-30T05:40:17.023Z,-56
2017-05-30T05:50:16.955Z,-56
2017-05-30T06:00:17.010Z,-57
2017-05-30T06:10:16.977Z,-55
2017-05-30T06:20:17.045Z,-56
2017-05-30T06:30:17.026Z,-54
2017-05-30T06:40:16.954Z,-54
2017-05-30T06:50:17.068Z,-54
2017-05-30T07:00:16.999Z,-54
2017-05-30T07:10:16.963Z,-53
2017-05-30T07:20:16.976Z,-56
2017-05-30T07:30:17.019Z,-57
2017-05-30T07:40:17.190Z,-56
2017-05-30T07:50:17.166Z,-56
2017-05-30T08:00:17.850Z,-57
2017-05-30T08:10:17.240Z,-56
2017-05-30T08:20:17.024Z,-58
2017-05-30T08:30:17.212Z,-59
2017-05-30T08:40:17.188Z,-61
2017-05-30T08:50:17.093Z,-61
2017-05-30T09:00:17.055Z,-62
2017-05-30T09:10:17.154Z,-54
2017-05-30T09:20:17.070Z,-51
2017-05-30T09:30:17.031Z,-53
2017-05-30T09:40:17.411Z,-53
2017-05-30T09:50:17.083Z,-53
2017-05-30T10:00:17.092Z,-52
2017-05-30T10:10:17.063Z,-53
2017-05-30T10:20:17.036Z,-53
2017-05-30T10:30:17.121Z,-52
2017-05-30T10:40:17.061Z,-51
2017-05-30T10:50:17.177Z,-53
2017-05-30T11:00:17.061Z,-52
2017-05-30T11:10:17.026Z,-52
2017-05-30T11:20:17.092Z,-60
2017-05-30T11:30:17.057Z,-59
2017-05-30T11:40:17.160Z,-53
2017-05-30T11:50:17.106Z,-53
2017-05-30T12:00:17.076Z,-59
2017-05-30T12:10:17.118Z,-60
2017-05-30T12:20:17.115Z,-60
2017-05-30T12:30:17.145Z,-60
2017-05-30T12:40:17.118Z,-60
2017-05-30T12:50:17.317Z,-63
2017-05-30T13:00:17.176Z,-67
2017-05-30T13:10:17.102Z,-58
2017-05-30T13:20:17.156Z,-59
2017-05-30T13:30:17.115Z,-60
2017-05-30T13:40:17.351Z,-60
2017-05-30T13:50:17.243Z,-59
2017-05-30T14:00:18.115Z,-59
2017-05-30T14:10:17.162Z,-61
2017-05-30T14:20:17.121Z,-63
2017-05-30T14:30:17.109Z,-61
2017-05-30T14:40:17.213Z,-61
2017-05-30T14:50:17.169Z,-64
2017-05-30T15:00:17.162Z,-59
2017-05-30T15:10:17.282Z,-64
2017-05-30T15:20:17.281Z,-57
2017-05-30T15:30:17.267Z,-60
2017-05-30T15:40:17.213Z,-59
2017-05-30T15:50:18.237Z,-60
2017-05-30T16:00:17.182Z,-59
2017-05-30T16:10:17.099Z,-59
2017-05-30T16:20:17.241Z,-59
2017-05-30T16:30:17.105Z,-60
2017-05-30T16:40:18.200Z,-60
2017-05-30T16:50:17.140Z,-59
2017-05-30T17:00:17.261Z,-60
2017-05-30T17:10:18.152Z,-59
2017-05-30T17:20:17.149Z,-59
2017-05-30T17:30:17.131Z,-58
2017-05-30T17:40:17.220Z,-60
2017-05-30T17:50:17.181Z,-61
2017-05-30T18:00:17.229Z,-60
2017-05-30T18:10:17.194Z,-60
2017-05-30T18:20:17.357Z,-62
2017-05-30T18:30:17.335Z,-64
2017-05-30T18:40:19.308Z,-60
2017-05-30T18:50:17.371Z,-61
2017-05-30T19:00:18.266Z,-62
2017-05-30T19:10:18.255Z,-61
2017-05-30T19:20:17.274Z,-62
2017-05-30T19:30:17.274Z,-60
2017-05-30T19:40:17.247Z,-59
2017-05-30T19:50:17.288Z,-60
2017-05-30T20:00:17.194Z,-62
2017-05-30T20:10:17.298Z,-58
2017-05-30T20:20:17.419Z,-57
2017-05-30T20:30:17.351Z,-56
2017-05-30T20:40:17.209Z,-56
2017-05-30T20:50:17.187Z,-58
2017-05-30T21:00:17.256Z,-59
2017-05-30T21:10:17.291Z,-57
2017-05-30T21:20:17.366Z,-60
2017-05-30T21:30:17.277Z,-56
2017-05-30T21:40:17.305Z,-57
2017-05-30T21:50:17.239Z,-58
2017-05-30T22:00:17.333Z,-57
2017-05-30T22:10:17.805Z,-56
2017-05-30T22:20:21.713Z,-57
2017-05-30T22:30:17.291Z,-58
2017-05-30T22:40:19.414Z,-58
2017-05-30T22:50:17.232Z,-58
2017-05-30T23:00:17.232Z,-58
2017-05-30T23:10:17.285Z,-58
2017-05-30T23:20:17.337Z,-57
2017-05-30T23:30:19.289Z,-58
2017-05-30T23:40:17.349Z,-59
2017-05-30T23:50:23.029Z,-58
